sensor_id;sensor_type;location;lat;lon;timestamp;P1;durP1;ratioP1;P2;durP2;ratioP2
11039;SDS011;5573;49.592;8.662;2022-11-04T00:01:40;347.20;;;326.08;;
11039;SDS011;5573;49.592;8.662;2022-11-04T00:04:29;357.58;;;336.23;;
11039;SDS011;5573;49.592;8.662;2022-11-04T00:07:17;375.63;;;353.25;;
11039;SDS011;5573;49.592;8.662;2022-11-04T00:10:23;351.17;;;330.13;;
11039;SDS011;5573;49.592;8.662;2022-11-04T00:13:31;340.80;;;321.08;;
11039;SDS011;5573;49.592;8.662;2022-11-04T00:16:18;349.63;;;328.88;;
11039;SDS011;5573;49.592;8.662;2022-11-04T00:19:25;356.60;;;335.27;;
11039;SDS011;5573;49.592;8.662;2022-11-04T00:22:14;366.95;;;344.48;;
11039;SDS011;5573;49.592;8.662;2022-11-04T00:25:19;340.73;;;320.88;;
11039;SDS011;5573;49.592;8.662;2022-11-04T00:28:26;340.67;;;320.40;;
11039;SDS011;5573;49.592;8.662;2022-11-04T00:31:29;347.98;;;327.83;;
11039;SDS011;5573;49.592;8.662;2022-11-04T00:34:36;345.00;;;324.55;;
11039;SDS011;5573;49.592;8.662;2022-11-04T00:37:24;342.80;;;322.33;;
11039;SDS011;5573;49.592;8.662;2022-11-04T00:40:13;336.33;;;316.60;;
11039;SDS011;5573;49.592;8.662;2022-11-04T00:43:02;324.35;;;305.38;;
11039;SDS011;5573;49.592;8.662;2022-11-04T00:45:50;323.45;;;304.27;;
11039;SDS011;5573;49.592;8.662;2022-11-04T00:48:38;321.15;;;302.00;;
11039;SDS011;5573;49.592;8.662;2022-11-04T00:51:27;337.38;;;318.02;;
11039;SDS011;5573;49.592;8.662;2022-11-04T00:54:15;352.98;;;332.05;;
11039;SDS011;5573;49.592;8.662;2022-11-04T00:57:03;345.38;;;325.17;;
11039;SDS011;5573;49.592;8.662;2022-11-04T00:59:51;326.98;;;307.88;;
11039;SDS011;5573;49.592;8.662;2022-11-04T01:02:39;333.65;;;313.80;;
11039;SDS011;5573;49.592;8.662;2022-11-04T01:05:27;333.02;;;314.15;;
11039;SDS011;5573;49.592;8.662;2022-11-04T01:08:16;344.98;;;324.45;;
11039;SDS011;5573;49.592;8.662;2022-11-04T01:11:04;323.38;;;303.85;;
11039;SDS011;5573;49.592;8.662;2022-11-04T01:13:53;334.77;;;315.25;;
11039;SDS011;5573;49.592;8.662;2022-11-04T01:16:42;317.08;;;298.65;;
11039;SDS011;5573;49.592;8.662;2022-11-04T01:19:30;314.90;;;296.48;;
11039;SDS011;5573;49.592;8.662;2022-11-04T01:22:18;323.02;;;303.83;;
11039;SDS011;5573;49.592;8.662;2022-11-04T01:25:08;331.35;;;312.00;;
11039;SDS011;5573;49.592;8.662;2022-11-04T01:27:56;331.83;;;312.42;;
11039;SDS011;5573;49.592;8.662;2022-11-04T01:30:44;337.15;;;317.33;;
11039;SDS011;5573;49.592;8.662;2022-11-04T01:33:32;312.88;;;294.58;;
11039;SDS011;5573;49.592;8.662;2022-11-04T01:36:21;307.20;;;289.50;;
11039;SDS011;5573;49.592;8.662;2022-11-04T01:39:10;303.65;;;286.70;;
11039;SDS011;5573;49.592;8.662;2022-11-04T01:41:59;334.02;;;315.13;;
11039;SDS011;5573;49.592;8.662;2022-11-04T01:44:54;325.33;;;306.58;;
11039;SDS011;5573;49.592;8.662;2022-11-04T01:47:45;318.15;;;300.30;;
11039;SDS011;5573;49.592;8.662;2022-11-04T01:50:36;324.63;;;306.02;;
11039;SDS011;5573;49.592;8.662;2022-11-04T01:53:25;327.15;;;307.85;;
11039;SDS011;5573;49.592;8.662;2022-11-04T01:56:17;305.55;;;288.00;;
11039;SDS011;5573;49.592;8.662;2022-11-04T01:59:09;319.15;;;300.67;;
11039;SDS011;5573;49.592;8.662;2022-11-04T02:02:02;311.95;;;294.13;;
11039;SDS011;5573;49.592;8.662;2022-11-04T02:04:50;314.20;;;295.88;;
11039;SDS011;5573;49.592;8.662;2022-11-04T02:07:38;300.27;;;283.23;;
11039;SDS011;5573;49.592;8.662;2022-11-04T02:10:27;313.63;;;295.88;;
11039;SDS011;5573;49.592;8.662;2022-11-04T02:13:16;319.20;;;300.95;;
11039;SDS011;5573;49.592;8.662;2022-11-04T02:16:08;293.85;;;277.50;;
11039;SDS011;5573;49.592;8.662;2022-11-04T02:19:00;289.98;;;273.42;;
11039;SDS011;5573;49.592;8.662;2022-11-04T02:22:05;306.23;;;288.58;;
11039;SDS011;5573;49.592;8.662;2022-11-04T02:25:20;309.58;;;291.95;;
11039;SDS011;5573;49.592;8.662;2022-11-04T02:28:33;296.10;;;279.38;;
11039;SDS011;5573;49.592;8.662;2022-11-04T02:31:42;307.33;;;289.77;;
11039;SDS011;5573;49.592;8.662;2022-11-04T02:34:42;318.35;;;300.33;;
11039;SDS011;5573;49.592;8.662;2022-11-04T02:37:41;307.88;;;290.67;;
11039;SDS011;5573;49.592;8.662;2022-11-04T02:40:38;338.70;;;319.40;;
11039;SDS011;5573;49.592;8.662;2022-11-04T02:43:32;319.70;;;301.15;;
11039;SDS011;5573;49.592;8.662;2022-11-04T02:46:30;315.17;;;296.90;;
11039;SDS011;5573;49.592;8.662;2022-11-04T02:49:22;299.42;;;282.33;;
11039;SDS011;5573;49.592;8.662;2022-11-04T02:52:15;315.98;;;297.73;;
11039;SDS011;5573;49.592;8.662;2022-11-04T02:55:09;319.17;;;301.13;;
11039;SDS011;5573;49.592;8.662;2022-11-04T02:58:02;301.20;;;284.13;;
11039;SDS011;5573;49.592;8.662;2022-11-04T03:00:55;301.03;;;283.77;;
11039;SDS011;5573;49.592;8.662;2022-11-04T03:03:47;290.77;;;274.55;;
11039;SDS011;5573;49.592;8.662;2022-11-04T03:06:39;307.52;;;290.02;;
11039;SDS011;5573;49.592;8.662;2022-11-04T03:09:29;293.98;;;277.10;;
11039;SDS011;5573;49.592;8.662;2022-11-04T03:12:18;286.33;;;270.23;;
11039;SDS011;5573;49.592;8.662;2022-11-04T03:15:12;288.02;;;271.77;;
11039;SDS011;5573;49.592;8.662;2022-11-04T03:18:07;283.95;;;267.98;;
11039;SDS011;5573;49.592;8.662;2022-11-04T03:21:03;296.98;;;280.27;;
11039;SDS011;5573;49.592;8.662;2022-11-04T03:23:57;282.23;;;266.20;;
11039;SDS011;5573;49.592;8.662;2022-11-04T03:26:46;304.88;;;287.73;;
11039;SDS011;5573;49.592;8.662;2022-11-04T03:29:41;294.83;;;278.02;;
11039;SDS011;5573;49.592;8.662;2022-11-04T03:32:37;292.85;;;275.67;;
11039;SDS011;5573;49.592;8.662;2022-11-04T03:35:30;295.27;;;278.52;;
11039;SDS011;5573;49.592;8.662;2022-11-04T03:38:19;271.77;;;256.60;;
11039;SDS011;5573;49.592;8.662;2022-11-04T03:41:11;275.77;;;259.83;;
11039;SDS011;5573;49.592;8.662;2022-11-04T03:44:04;300.10;;;282.58;;
11039;SDS011;5573;49.592;8.662;2022-11-04T03:46:52;289.80;;;273.02;;
11039;SDS011;5573;49.592;8.662;2022-11-04T03:49:40;282.88;;;267.20;;
11039;SDS011;5573;49.592;8.662;2022-11-04T03:52:29;280.95;;;264.95;;
11039;SDS011;5573;49.592;8.662;2022-11-04T03:55:17;269.45;;;254.02;;
11039;SDS011;5573;49.592;8.662;2022-11-04T03:58:07;266.98;;;251.88;;
11039;SDS011;5573;49.592;8.662;2022-11-04T04:01:02;270.47;;;255.00;;
11039;SDS011;5573;49.592;8.662;2022-11-04T04:04:01;265.13;;;249.90;;
11039;SDS011;5573;49.592;8.662;2022-11-04T04:06:56;257.17;;;242.77;;
11039;SDS011;5573;49.592;8.662;2022-11-04T04:09:50;263.23;;;247.77;;
11039;SDS011;5573;49.592;8.662;2022-11-04T04:12:44;264.77;;;249.07;;
11039;SDS011;5573;49.592;8.662;2022-11-04T04:15:37;274.38;;;258.65;;
11039;SDS011;5573;49.592;8.662;2022-11-04T04:18:30;264.83;;;249.57;;
11039;SDS011;5573;49.592;8.662;2022-11-04T04:21:25;230.83;;;217.63;;
11039;SDS011;5573;49.592;8.662;2022-11-04T04:24:18;262.33;;;247.03;;
11039;SDS011;5573;49.592;8.662;2022-11-04T04:27:29;257.90;;;243.33;;
11039;SDS011;5573;49.592;8.662;2022-11-04T04:30:19;239.00;;;225.43;;
11039;SDS011;5573;49.592;8.662;2022-11-04T04:33:10;243.57;;;229.67;;
11039;SDS011;5573;49.592;8.662;2022-11-04T04:36:00;234.53;;;220.93;;
11039;SDS011;5573;49.592;8.662;2022-11-04T04:38:48;247.83;;;233.47;;
11039;SDS011;5573;49.592;8.662;2022-11-04T04:41:54;247.63;;;233.37;;
11039;SDS011;5573;49.592;8.662;2022-11-04T04:45:00;242.77;;;228.83;;
11039;SDS011;5573;49.592;8.662;2022-11-04T04:47:52;242.33;;;228.30;;
11039;SDS011;5573;49.592;8.662;2022-11-04T04:50:43;236.63;;;222.70;;
11039;SDS011;5573;49.592;8.662;2022-11-04T04:53:33;236.37;;;223.00;;
11039;SDS011;5573;49.592;8.662;2022-11-04T04:56:21;226.93;;;213.33;;
11039;SDS011;5573;49.592;8.662;2022-11-04T04:59:09;249.53;;;235.17;;
11039;SDS011;5573;49.592;8.662;2022-11-04T05:01:57;241.00;;;227.00;;
11039;SDS011;5573;49.592;8.662;2022-11-04T05:04:45;237.53;;;223.47;;
11039;SDS011;5573;49.592;8.662;2022-11-04T05:07:35;243.57;;;228.47;;
11039;SDS011;5573;49.592;8.662;2022-11-04T05:10:23;225.03;;;211.67;;
11039;SDS011;5573;49.592;8.662;2022-11-04T05:13:11;233.90;;;220.27;;
11039;SDS011;5573;49.592;8.662;2022-11-04T05:16:15;225.90;;;212.87;;
11039;SDS011;5573;49.592;8.662;2022-11-04T05:19:03;230.53;;;217.17;;
11039;SDS011;5573;49.592;8.662;2022-11-04T05:21:51;255.33;;;240.80;;
11039;SDS011;5573;49.592;8.662;2022-11-04T05:24:40;246.33;;;231.40;;
11039;SDS011;5573;49.592;8.662;2022-11-04T05:27:28;241.43;;;227.07;;
11039;SDS011;5573;49.592;8.662;2022-11-04T05:30:16;231.17;;;217.57;;
11039;SDS011;5573;49.592;8.662;2022-11-04T05:33:05;248.77;;;234.13;;
11039;SDS011;5573;49.592;8.662;2022-11-04T05:35:54;256.87;;;242.10;;
11039;SDS011;5573;49.592;8.662;2022-11-04T05:38:42;252.67;;;238.17;;
11039;SDS011;5573;49.592;8.662;2022-11-04T05:41:32;237.67;;;223.90;;
11039;SDS011;5573;49.592;8.662;2022-11-04T05:44:20;258.47;;;243.23;;
11039;SDS011;5573;49.592;8.662;2022-11-04T05:47:08;264.53;;;249.27;;
11039;SDS011;5573;49.592;8.662;2022-11-04T05:49:56;257.10;;;242.27;;
11039;SDS011;5573;49.592;8.662;2022-11-04T05:52:44;261.13;;;245.83;;
11039;SDS011;5573;49.592;8.662;2022-11-04T05:55:32;269.80;;;254.07;;
11039;SDS011;5573;49.592;8.662;2022-11-04T05:58:21;244.05;;;229.95;;
11039;SDS011;5573;49.592;8.662;2022-11-04T06:01:20;269.60;;;254.47;;
11039;SDS011;5573;49.592;8.662;2022-11-04T06:04:12;248.73;;;234.02;;
11039;SDS011;5573;49.592;8.662;2022-11-04T06:07:01;239.20;;;225.53;;
11039;SDS011;5573;49.592;8.662;2022-11-04T06:09:49;252.75;;;237.93;;
11039;SDS011;5573;49.592;8.662;2022-11-04T06:12:37;259.70;;;244.80;;
11039;SDS011;5573;49.592;8.662;2022-11-04T06:15:27;246.53;;;232.00;;
11039;SDS011;5573;49.592;8.662;2022-11-04T06:18:14;272.57;;;256.23;;
11039;SDS011;5573;49.592;8.662;2022-11-04T06:21:06;263.55;;;248.73;;
11039;SDS011;5573;49.592;8.662;2022-11-04T06:23:56;253.07;;;238.70;;
11039;SDS011;5573;49.592;8.662;2022-11-04T06:26:45;253.32;;;238.73;;
11039;SDS011;5573;49.592;8.662;2022-11-04T06:29:33;254.20;;;239.80;;
11039;SDS011;5573;49.592;8.662;2022-11-04T06:32:23;260.73;;;245.43;;
11039;SDS011;5573;49.592;8.662;2022-11-04T06:35:11;249.77;;;235.52;;
11039;SDS011;5573;49.592;8.662;2022-11-04T06:37:59;237.93;;;224.55;;
11039;SDS011;5573;49.592;8.662;2022-11-04T06:40:47;248.07;;;234.27;;
11039;SDS011;5573;49.592;8.662;2022-11-04T06:43:35;264.17;;;249.07;;
11039;SDS011;5573;49.592;8.662;2022-11-04T06:46:24;262.00;;;246.95;;
11039;SDS011;5573;49.592;8.662;2022-11-04T06:49:16;259.10;;;244.63;;
11039;SDS011;5573;49.592;8.662;2022-11-04T06:52:06;246.82;;;232.95;;
11039;SDS011;5573;49.592;8.662;2022-11-04T06:54:54;253.32;;;239.13;;
11039;SDS011;5573;49.592;8.662;2022-11-04T06:57:42;272.17;;;256.75;;
11039;SDS011;5573;49.592;8.662;2022-11-04T07:00:30;274.35;;;258.70;;
11039;SDS011;5573;49.592;8.662;2022-11-04T07:03:18;272.58;;;257.35;;
11039;SDS011;5573;49.592;8.662;2022-11-04T07:05:47;306.45;;;288.52;;
11039;SDS011;5573;49.592;8.662;2022-11-04T07:08:15;269.10;;;253.93;;
11039;SDS011;5573;49.592;8.662;2022-11-04T07:10:42;302.90;;;285.95;;
11039;SDS011;5573;49.592;8.662;2022-11-04T07:13:10;298.67;;;281.73;;
11039;SDS011;5573;49.592;8.662;2022-11-04T07:15:38;299.50;;;282.35;;
11039;SDS011;5573;49.592;8.662;2022-11-04T07:18:06;304.42;;;287.52;;
11039;SDS011;5573;49.592;8.662;2022-11-04T07:20:34;288.65;;;272.63;;
11039;SDS011;5573;49.592;8.662;2022-11-04T07:23:03;288.73;;;272.73;;
11039;SDS011;5573;49.592;8.662;2022-11-04T07:25:31;320.60;;;301.98;;
11039;SDS011;5573;49.592;8.662;2022-11-04T07:27:59;320.65;;;302.63;;
11039;SDS011;5573;49.592;8.662;2022-11-04T07:30:28;290.45;;;274.45;;
11039;SDS011;5573;49.592;8.662;2022-11-04T07:32:55;294.20;;;277.57;;
11039;SDS011;5573;49.592;8.662;2022-11-04T07:35:23;289.90;;;273.40;;
11039;SDS011;5573;49.592;8.662;2022-11-04T07:37:51;295.33;;;279.00;;
11039;SDS011;5573;49.592;8.662;2022-11-04T07:40:20;297.63;;;280.95;;
11039;SDS011;5573;49.592;8.662;2022-11-04T07:42:47;289.42;;;273.25;;
11039;SDS011;5573;49.592;8.662;2022-11-04T07:45:16;298.63;;;281.70;;
11039;SDS011;5573;49.592;8.662;2022-11-04T07:47:44;307.48;;;290.27;;
11039;SDS011;5573;49.592;8.662;2022-11-04T07:50:12;310.40;;;293.50;;
11039;SDS011;5573;49.592;8.662;2022-11-04T07:52:39;294.45;;;277.95;;
11039;SDS011;5573;49.592;8.662;2022-11-04T07:55:07;293.70;;;277.17;;
11039;SDS011;5573;49.592;8.662;2022-11-04T07:57:37;298.13;;;281.52;;
11039;SDS011;5573;49.592;8.662;2022-11-04T08:00:05;308.60;;;291.40;;
11039;SDS011;5573;49.592;8.662;2022-11-04T08:02:37;315.58;;;297.58;;
11039;SDS011;5573;49.592;8.662;2022-11-04T08:05:05;311.25;;;293.80;;
11039;SDS011;5573;49.592;8.662;2022-11-04T08:07:34;291.05;;;274.83;;
11039;SDS011;5573;49.592;8.662;2022-11-04T08:10:02;295.85;;;279.30;;
11039;SDS011;5573;49.592;8.662;2022-11-04T08:12:30;306.65;;;289.63;;
11039;SDS011;5573;49.592;8.662;2022-11-04T08:15:00;305.00;;;287.98;;
11039;SDS011;5573;49.592;8.662;2022-11-04T08:17:27;316.48;;;298.30;;
11039;SDS011;5573;49.592;8.662;2022-11-04T08:19:55;313.83;;;296.15;;
11039;SDS011;5573;49.592;8.662;2022-11-04T08:22:23;307.15;;;289.92;;
11039;SDS011;5573;49.592;8.662;2022-11-04T08:24:58;322.58;;;303.77;;
11039;SDS011;5573;49.592;8.662;2022-11-04T08:27:25;292.02;;;275.77;;
11039;SDS011;5573;49.592;8.662;2022-11-04T08:29:53;303.73;;;286.88;;
11039;SDS011;5573;49.592;8.662;2022-11-04T08:32:22;326.45;;;307.95;;
11039;SDS011;5573;49.592;8.662;2022-11-04T08:34:50;294.67;;;278.17;;
11039;SDS011;5573;49.592;8.662;2022-11-04T08:37:17;325.48;;;307.15;;
11039;SDS011;5573;49.592;8.662;2022-11-04T08:39:45;305.23;;;288.48;;
11039;SDS011;5573;49.592;8.662;2022-11-04T08:42:13;310.73;;;293.52;;
11039;SDS011;5573;49.592;8.662;2022-11-04T08:44:41;332.58;;;313.67;;
11039;SDS011;5573;49.592;8.662;2022-11-04T08:47:09;330.88;;;311.92;;
11039;SDS011;5573;49.592;8.662;2022-11-04T08:49:38;309.98;;;292.92;;
11039;SDS011;5573;49.592;8.662;2022-11-04T08:52:07;322.10;;;304.10;;
11039;SDS011;5573;49.592;8.662;2022-11-04T08:54:35;314.67;;;297.20;;
11039;SDS011;5573;49.592;8.662;2022-11-04T08:57:03;310.88;;;293.40;;
11039;SDS011;5573;49.592;8.662;2022-11-04T08:59:30;331.23;;;312.23;;
11039;SDS011;5573;49.592;8.662;2022-11-04T09:01:58;319.38;;;301.15;;
11039;SDS011;5573;49.592;8.662;2022-11-04T09:04:27;346.20;;;327.02;;
11039;SDS011;5573;49.592;8.662;2022-11-04T09:06:56;323.73;;;305.65;;
11039;SDS011;5573;49.592;8.662;2022-11-04T09:09:26;317.42;;;299.85;;
11039;SDS011;5573;49.592;8.662;2022-11-04T09:11:54;338.35;;;319.45;;
11039;SDS011;5573;49.592;8.662;2022-11-04T09:14:22;358.08;;;338.25;;
11039;SDS011;5573;49.592;8.662;2022-11-04T09:16:50;349.80;;;329.90;;
11039;SDS011;5573;49.592;8.662;2022-11-04T09:19:19;348.42;;;329.00;;
11039;SDS011;5573;49.592;8.662;2022-11-04T09:21:46;356.17;;;336.17;;
11039;SDS011;5573;49.592;8.662;2022-11-04T09:24:15;341.45;;;322.17;;
11039;SDS011;5573;49.592;8.662;2022-11-04T09:26:43;344.20;;;324.70;;
11039;SDS011;5573;49.592;8.662;2022-11-04T09:29:11;362.48;;;341.80;;
11039;SDS011;5573;49.592;8.662;2022-11-04T09:31:38;338.60;;;319.35;;
11039;SDS011;5573;49.592;8.662;2022-11-04T09:34:08;364.58;;;343.67;;
11039;SDS011;5573;49.592;8.662;2022-11-04T09:36:35;352.20;;;332.13;;
11039;SDS011;5573;49.592;8.662;2022-11-04T09:39:04;328.52;;;310.40;;
11039;SDS011;5573;49.592;8.662;2022-11-04T09:41:47;342.40;;;322.90;;
11039;SDS011;5573;49.592;8.662;2022-11-04T09:44:26;348.35;;;328.65;;
11039;SDS011;5573;49.592;8.662;2022-11-04T09:47:19;344.13;;;324.70;;
11039;SDS011;5573;49.592;8.662;2022-11-04T09:49:49;345.02;;;325.52;;
11039;SDS011;5573;49.592;8.662;2022-11-04T09:52:20;343.17;;;323.92;;
11039;SDS011;5573;49.592;8.662;2022-11-04T09:54:53;353.60;;;333.55;;
11039;SDS011;5573;49.592;8.662;2022-11-04T09:57:25;352.90;;;333.00;;
11039;SDS011;5573;49.592;8.662;2022-11-04T09:59:54;353.08;;;332.63;;
11039;SDS011;5573;49.592;8.662;2022-11-04T10:02:28;359.60;;;339.15;;
11039;SDS011;5573;49.592;8.662;2022-11-04T10:05:10;351.05;;;331.65;;
11039;SDS011;5573;49.592;8.662;2022-11-04T10:08:00;348.88;;;329.67;;
11039;SDS011;5573;49.592;8.662;2022-11-04T10:10:41;333.15;;;314.20;;
11039;SDS011;5573;49.592;8.662;2022-11-04T10:13:21;358.08;;;337.60;;
11039;SDS011;5573;49.592;8.662;2022-11-04T10:18:50;360.90;;;339.75;;
11039;SDS011;5573;49.592;8.662;2022-11-04T10:21:30;381.58;;;359.90;;
11039;SDS011;5573;49.592;8.662;2022-11-04T10:24:08;366.73;;;345.83;;
11039;SDS011;5573;49.592;8.662;2022-11-04T10:26:46;341.05;;;322.20;;
11039;SDS011;5573;49.592;8.662;2022-11-04T10:29:28;349.33;;;329.50;;
11039;SDS011;5573;49.592;8.662;2022-11-04T10:32:00;361.20;;;340.38;;
11039;SDS011;5573;49.592;8.662;2022-11-04T10:34:33;385.30;;;363.30;;
11039;SDS011;5573;49.592;8.662;2022-11-04T10:37:04;373.50;;;351.85;;
11039;SDS011;5573;49.592;8.662;2022-11-04T10:39:38;352.40;;;332.33;;
11039;SDS011;5573;49.592;8.662;2022-11-04T10:42:10;362.00;;;341.27;;
11039;SDS011;5573;49.592;8.662;2022-11-04T10:44:41;376.10;;;353.98;;
11039;SDS011;5573;49.592;8.662;2022-11-04T10:47:12;356.00;;;335.60;;
11039;SDS011;5573;49.592;8.662;2022-11-04T10:49:52;349.40;;;329.73;;
11039;SDS011;5573;49.592;8.662;2022-11-04T10:52:52;352.10;;;331.45;;
11039;SDS011;5573;49.592;8.662;2022-11-04T10:55:26;369.48;;;348.27;;
11039;SDS011;5573;49.592;8.662;2022-11-04T10:58:00;371.15;;;350.23;;
11039;SDS011;5573;49.592;8.662;2022-11-04T11:00:34;383.33;;;360.85;;
11039;SDS011;5573;49.592;8.662;2022-11-04T11:03:06;391.65;;;368.85;;
11039;SDS011;5573;49.592;8.662;2022-11-04T11:05:49;378.38;;;357.30;;
11039;SDS011;5573;49.592;8.662;2022-11-04T11:08:26;379.02;;;357.13;;
11039;SDS011;5573;49.592;8.662;2022-11-04T11:10:55;389.40;;;366.90;;
11039;SDS011;5573;49.592;8.662;2022-11-04T11:13:23;382.52;;;360.40;;
11039;SDS011;5573;49.592;8.662;2022-11-04T11:16:04;404.67;;;381.65;;
11039;SDS011;5573;49.592;8.662;2022-11-04T11:18:38;380.17;;;359.20;;
11039;SDS011;5573;49.592;8.662;2022-11-04T11:21:08;402.52;;;379.65;;
11039;SDS011;5573;49.592;8.662;2022-11-04T11:23:40;402.40;;;378.50;;
11039;SDS011;5573;49.592;8.662;2022-11-04T11:26:09;404.88;;;381.75;;
11039;SDS011;5573;49.592;8.662;2022-11-04T11:28:39;376.40;;;355.20;;
11039;SDS011;5573;49.592;8.662;2022-11-04T11:31:10;416.75;;;393.10;;
11039;SDS011;5573;49.592;8.662;2022-11-04T11:33:50;412.35;;;389.17;;
11039;SDS011;5573;49.592;8.662;2022-11-04T11:36:21;397.83;;;374.17;;
11039;SDS011;5573;49.592;8.662;2022-11-04T11:38:52;395.55;;;372.40;;
11039;SDS011;5573;49.592;8.662;2022-11-04T11:41:24;402.75;;;379.77;;
11039;SDS011;5573;49.592;8.662;2022-11-04T11:43:58;399.35;;;377.17;;
11039;SDS011;5573;49.592;8.662;2022-11-04T11:46:31;409.05;;;385.33;;
11039;SDS011;5573;49.592;8.662;2022-11-04T11:49:02;380.40;;;358.67;;
11039;SDS011;5573;49.592;8.662;2022-11-04T11:51:32;425.52;;;401.25;;
11039;SDS011;5573;49.592;8.662;2022-11-04T11:54:06;397.00;;;374.42;;
11039;SDS011;5573;49.592;8.662;2022-11-04T11:56:43;383.70;;;361.70;;
11039;SDS011;5573;49.592;8.662;2022-11-04T11:59:36;412.27;;;388.90;;
11039;SDS011;5573;49.592;8.662;2022-11-04T12:02:41;392.88;;;369.80;;
11039;SDS011;5573;49.592;8.662;2022-11-04T12:05:15;389.05;;;367.13;;
11039;SDS011;5573;49.592;8.662;2022-11-04T12:08:07;395.58;;;373.80;;
11039;SDS011;5573;49.592;8.662;2022-11-04T12:11:09;370.88;;;350.45;;
11039;SDS011;5573;49.592;8.662;2022-11-04T12:13:43;402.23;;;379.30;;
11039;SDS011;5573;49.592;8.662;2022-11-04T12:16:17;424.95;;;401.20;;
11039;SDS011;5573;49.592;8.662;2022-11-04T12:18:57;418.05;;;393.67;;
11039;SDS011;5573;49.592;8.662;2022-11-04T12:21:34;421.40;;;397.60;;
11039;SDS011;5573;49.592;8.662;2022-11-04T12:24:10;451.33;;;426.20;;
11039;SDS011;5573;49.592;8.662;2022-11-04T12:26:45;421.52;;;397.63;;
11039;SDS011;5573;49.592;8.662;2022-11-04T12:29:29;416.92;;;392.98;;
11039;SDS011;5573;49.592;8.662;2022-11-04T12:32:07;435.40;;;410.85;;
11039;SDS011;5573;49.592;8.662;2022-11-04T12:34:48;419.63;;;395.80;;
11039;SDS011;5573;49.592;8.662;2022-11-04T12:37:29;414.10;;;390.02;;
11039;SDS011;5573;49.592;8.662;2022-11-04T12:40:09;427.48;;;403.30;;
11039;SDS011;5573;49.592;8.662;2022-11-04T12:42:46;402.55;;;379.90;;
11039;SDS011;5573;49.592;8.662;2022-11-04T12:45:29;405.98;;;382.48;;
11039;SDS011;5573;49.592;8.662;2022-11-04T12:48:09;387.42;;;365.73;;
11039;SDS011;5573;49.592;8.662;2022-11-04T12:50:43;402.92;;;380.23;;
11039;SDS011;5573;49.592;8.662;2022-11-04T12:53:25;405.35;;;381.33;;
11039;SDS011;5573;49.592;8.662;2022-11-04T12:56:05;382.42;;;361.17;;
11039;SDS011;5573;49.592;8.662;2022-11-04T12:58:44;393.00;;;369.42;;
11039;SDS011;5573;49.592;8.662;2022-11-04T13:01:28;367.80;;;346.70;;
11039;SDS011;5573;49.592;8.662;2022-11-04T13:04:02;362.38;;;341.77;;
11039;SDS011;5573;49.592;8.662;2022-11-04T13:06:38;374.05;;;353.02;;
11039;SDS011;5573;49.592;8.662;2022-11-04T13:09:12;375.48;;;354.02;;
11039;SDS011;5573;49.592;8.662;2022-11-04T13:11:44;361.73;;;341.10;;
11039;SDS011;5573;49.592;8.662;2022-11-04T13:14:18;380.17;;;358.30;;
11039;SDS011;5573;49.592;8.662;2022-11-04T13:16:55;375.88;;;354.45;;
11039;SDS011;5573;49.592;8.662;2022-11-04T13:19:26;365.05;;;343.83;;
11039;SDS011;5573;49.592;8.662;2022-11-04T13:21:59;368.33;;;347.05;;
11039;SDS011;5573;49.592;8.662;2022-11-04T13:24:32;338.25;;;319.15;;
11039;SDS011;5573;49.592;8.662;2022-11-04T13:27:05;345.40;;;325.52;;
11039;SDS011;5573;49.592;8.662;2022-11-04T13:29:42;320.60;;;302.17;;
11039;SDS011;5573;49.592;8.662;2022-11-04T13:32:11;308.17;;;290.83;;
11039;SDS011;5573;49.592;8.662;2022-11-04T13:34:49;300.25;;;283.48;;
11039;SDS011;5573;49.592;8.662;2022-11-04T13:37:25;318.58;;;300.55;;
11039;SDS011;5573;49.592;8.662;2022-11-04T13:39:56;296.10;;;279.23;;
11039;SDS011;5573;49.592;8.662;2022-11-04T13:42:44;311.88;;;293.77;;
11039;SDS011;5573;49.592;8.662;2022-11-04T13:45:47;290.80;;;274.40;;
11039;SDS011;5573;49.592;8.662;2022-11-04T13:48:17;312.58;;;294.33;;
11039;SDS011;5573;49.592;8.662;2022-11-04T13:50:53;304.85;;;287.25;;
11039;SDS011;5573;49.592;8.662;2022-11-04T13:56:24;299.50;;;281.83;;
11039;SDS011;5573;49.592;8.662;2022-11-04T13:59:00;283.73;;;267.40;;
11039;SDS011;5573;49.592;8.662;2022-11-04T14:01:32;309.55;;;291.13;;
11039;SDS011;5573;49.592;8.662;2022-11-04T14:04:03;298.48;;;281.30;;
11039;SDS011;5573;49.592;8.662;2022-11-04T14:06:49;310.88;;;292.70;;
11039;SDS011;5573;49.592;8.662;2022-11-04T14:09:34;332.73;;;313.88;;
11039;SDS011;5573;49.592;8.662;2022-11-04T14:12:16;310.58;;;292.70;;
11039;SDS011;5573;49.592;8.662;2022-11-04T14:14:55;321.10;;;302.63;;
11039;SDS011;5573;49.592;8.662;2022-11-04T14:20:29;326.48;;;307.02;;
11039;SDS011;5573;49.592;8.662;2022-11-04T14:22:59;353.92;;;333.77;;
11039;SDS011;5573;49.592;8.662;2022-11-04T14:25:33;368.95;;;348.23;;
11039;SDS011;5573;49.592;8.662;2022-11-04T14:28:15;378.30;;;355.95;;
11039;SDS011;5573;49.592;8.662;2022-11-04T14:30:47;371.27;;;350.23;;
11039;SDS011;5573;49.592;8.662;2022-11-04T14:36:15;372.27;;;350.52;;
11039;SDS011;5573;49.592;8.662;2022-11-04T14:38:53;368.20;;;347.48;;
11039;SDS011;5573;49.592;8.662;2022-11-04T14:41:48;372.27;;;351.65;;
11039;SDS011;5573;49.592;8.662;2022-11-04T14:44:28;348.70;;;329.17;;
11039;SDS011;5573;49.592;8.662;2022-11-04T14:46:58;360.02;;;339.23;;
11039;SDS011;5573;49.592;8.662;2022-11-04T14:49:37;366.17;;;345.10;;
11039;SDS011;5573;49.592;8.662;2022-11-04T14:52:14;363.27;;;342.23;;
11039;SDS011;5573;49.592;8.662;2022-11-04T14:54:46;348.73;;;328.77;;
11039;SDS011;5573;49.592;8.662;2022-11-04T14:57:17;335.90;;;317.02;;
11039;SDS011;5573;49.592;8.662;2022-11-04T14:59:47;341.00;;;321.95;;
11039;SDS011;5573;49.592;8.662;2022-11-04T15:02:18;328.27;;;309.70;;
11039;SDS011;5573;49.592;8.662;2022-11-04T15:04:49;337.73;;;318.40;;
11039;SDS011;5573;49.592;8.662;2022-11-04T15:07:23;333.50;;;314.60;;
11039;SDS011;5573;49.592;8.662;2022-11-04T15:10:01;327.90;;;308.63;;
11039;SDS011;5573;49.592;8.662;2022-11-04T15:12:44;333.15;;;314.20;;
11039;SDS011;5573;49.592;8.662;2022-11-04T15:18:12;317.63;;;299.13;;
11039;SDS011;5573;49.592;8.662;2022-11-04T15:20:44;326.50;;;306.98;;
11039;SDS011;5573;49.592;8.662;2022-11-04T15:23:15;339.95;;;320.25;;
11039;SDS011;5573;49.592;8.662;2022-11-04T15:25:45;319.75;;;301.35;;
11039;SDS011;5573;49.592;8.662;2022-11-04T15:28:17;344.70;;;324.35;;
11039;SDS011;5573;49.592;8.662;2022-11-04T15:30:58;309.40;;;291.73;;
11039;SDS011;5573;49.592;8.662;2022-11-04T15:33:43;299.42;;;281.95;;
11039;SDS011;5573;49.592;8.662;2022-11-04T15:36:13;308.27;;;290.90;;
11039;SDS011;5573;49.592;8.662;2022-11-04T15:38:44;319.83;;;301.15;;
11039;SDS011;5573;49.592;8.662;2022-11-04T15:41:17;304.35;;;287.30;;
11039;SDS011;5573;49.592;8.662;2022-11-04T15:44:06;297.70;;;280.52;;
11039;SDS011;5573;49.592;8.662;2022-11-04T15:46:46;297.25;;;279.92;;